createdAt,value
2018-12-29T00:03:32.372Z,100264.67
2018-12-29T00:08:38.174Z,100270.62
2018-12-29T00:13:44.045Z,100272.77
2018-12-29T00:18:49.897Z,100277.41
2018-12-29T00:23:55.657Z,100277.41
2018-12-29T00:29:01.558Z,100273.98
2018-12-29T00:34:07.497Z,100280.61
2018-12-29T00:39:11.339Z,100283.30
2018-12-29T00:44:17.155Z,100284.09
2018-12-29T00:49:24.102Z,100291.31
2018-12-29T00:54:30.125Z,100283.12
2018-12-29T00:59:39.157Z,100295.53
2018-12-29T01:04:45.302Z,100299.78
2018-12-29T01:09:51.082Z,100301.59
2018-12-29T01:14:57.350Z,100304.98
2018-12-29T01:20:04.339Z,100307.05
2018-12-29T01:25:10.120Z,100313.46
2018-12-29T01:30:16.240Z,100313.46
2018-12-29T01:35:22.019Z,100310.51
2018-12-29T01:40:27.820Z,100314.63
2018-12-29T01:45:34.140Z,100320.20
2018-12-29T01:50:40.046Z,100312.56
2018-12-29T01:55:45.843Z,100314.23
2018-12-29T02:00:51.690Z,100290.02
2018-12-29T02:06:00.086Z,100306.92
2018-12-29T02:11:05.998Z,100292.61
2018-12-29T02:16:11.977Z,100284.77
2018-12-29T02:21:17.795Z,100271.71
2018-12-29T02:26:23.739Z,100281.34
2018-12-29T02:31:29.610Z,100279.11
2018-12-29T02:36:37.142Z,100272.28
2018-12-29T02:41:42.926Z,100274.78
2018-12-29T02:46:48.911Z,100272.30
2018-12-29T02:51:54.684Z,100266.80
2018-12-29T02:57:00.447Z,100251.73
2018-12-29T03:02:07.484Z,100231.23
2018-12-29T03:07:13.621Z,100242.29
2018-12-29T03:12:19.408Z,100238.02
2018-12-29T03:17:25.360Z,100235.78
2018-12-29T03:22:31.377Z,100231.38
2018-12-29T03:27:37.183Z,100235.66
2018-12-29T03:32:43.043Z,100216.00
2018-12-29T03:37:51.321Z,100208.38
2018-12-29T03:42:57.199Z,100214.59
2018-12-29T03:48:03.456Z,100214.50
2018-12-29T03:53:09.311Z,100221.05
2018-12-29T03:58:15.164Z,100218.70
2018-12-29T04:03:21.447Z,100227.13
2018-12-29T04:08:27.457Z,100224.13
2018-12-29T04:13:33.638Z,100226.84
2018-12-29T04:18:39.446Z,100229.89
2018-12-29T04:23:45.383Z,100229.89
2018-12-29T04:28:51.244Z,100233.23
2018-12-29T04:33:57.116Z,100229.08
2018-12-29T04:39:02.953Z,100229.08
2018-12-29T04:44:08.767Z,100225.22
2018-12-29T04:49:16.976Z,100230.34
2018-12-29T04:54:23.179Z,100231.05
2018-12-29T04:59:28.947Z,100225.24
2018-12-29T05:04:36.917Z,100238.78
2018-12-29T05:09:42.878Z,100242.20
2018-12-29T05:14:48.707Z,100234.52
2018-12-29T05:24:58.549Z,100246.48
2018-12-29T05:30:06.135Z,100240.76
2018-12-29T05:35:12.303Z,100239.74
2018-12-29T05:40:18.171Z,100241.72
2018-12-29T05:45:23.985Z,100236.45
2018-12-29T05:50:30.416Z,100240.46
2018-12-29T05:55:36.351Z,100245.33
2018-12-29T06:00:43.031Z,100248.27
2018-12-29T06:05:48.890Z,100246.45
2018-12-29T06:10:54.711Z,100255.77
2018-12-29T06:16:00.534Z,100252.00
2018-12-29T06:21:06.374Z,100257.53
2018-12-29T06:26:12.135Z,100258.50
2018-12-29T06:31:17.941Z,100262.70
2018-12-29T06:36:23.797Z,100262.70
2018-12-29T06:41:29.712Z,100271.10
2018-12-29T06:46:35.552Z,100255.66
2018-12-29T06:51:42.024Z,100255.66
2018-12-29T06:56:47.901Z,100269.77
2018-12-29T07:01:53.720Z,100270.34
2018-12-29T07:06:59.562Z,100273.09
2018-12-29T07:12:05.596Z,100280.66
2018-12-29T07:17:11.593Z,100279.77
2018-12-29T07:22:17.842Z,100280.80
2018-12-29T07:27:24.000Z,100279.98
2018-12-29T07:32:30.078Z,100281.67
2018-12-29T07:37:36.247Z,100267.38
2018-12-29T07:42:42.054Z,100267.38
2018-12-29T07:47:47.909Z,100300.87
2018-12-29T07:52:56.363Z,100300.87
2018-12-29T07:58:02.692Z,100310.88
2018-12-29T08:03:08.587Z,100302.24
2018-12-29T08:08:14.407Z,100301.31
2018-12-29T08:13:20.365Z,100294.16
2018-12-29T08:18:26.149Z,100299.97
2018-12-29T08:23:32.070Z,100291.13
2018-12-29T08:28:37.880Z,100308.94
2018-12-29T08:33:44.008Z,100306.28
2018-12-29T08:38:49.881Z,100324.11
2018-12-29T08:43:55.817Z,100324.11
2018-12-29T08:49:01.741Z,100324.11
2018-12-29T08:54:09.960Z,100317.00
2018-12-29T08:59:15.894Z,100314.69
2018-12-29T09:04:21.718Z,100306.19
2018-12-29T09:14:32.432Z,100309.17
2018-12-29T09:19:38.229Z,100315.00
2018-12-29T09:24:44.124Z,100315.00
2018-12-29T09:29:49.919Z,100324.13
2018-12-29T09:34:55.762Z,100324.13
2018-12-29T09:40:01.923Z,100303.87
2018-12-29T09:45:09.623Z,100303.87
2018-12-29T09:50:15.456Z,100312.65
2018-12-29T09:55:21.302Z,100308.79
2018-12-29T10:00:35.667Z,100300.60
2018-12-29T10:05:41.705Z,100300.68
2018-12-29T10:10:47.584Z,100294.48
2018-12-29T10:15:54.484Z,100296.27
2018-12-29T10:21:00.321Z,100286.89
2018-12-29T10:26:06.667Z,100262.62
2018-12-29T10:31:12.840Z,100271.28
2018-12-29T10:36:19.670Z,100278.66
2018-12-29T10:41:25.931Z,100278.66
2018-12-29T10:46:31.756Z,100275.02
2018-12-29T10:51:37.577Z,100267.59
2018-12-29T10:56:44.030Z,100247.70
2018-12-29T11:04:51.778Z,100253.30
2018-12-29T11:09:58.047Z,100251.55
2018-12-29T11:15:04.833Z,100253.92
2018-12-29T11:20:10.697Z,100243.92
2018-12-29T11:25:16.495Z,100226.09
2018-12-29T11:30:22.360Z,100233.81
2018-12-29T11:35:28.889Z,100233.81
2018-12-29T11:40:38.064Z,100221.86
2018-12-29T11:45:44.470Z,100199.51
2018-12-29T11:50:50.268Z,100212.56
2018-12-29T11:55:56.109Z,100177.10
2018-12-29T12:01:02.196Z,100177.10
2018-12-29T12:06:08.120Z,100184.68
2018-12-29T12:11:13.922Z,100178.44
2018-12-29T12:16:20.695Z,100182.42
2018-12-29T12:21:26.486Z,100178.70
2018-12-29T12:27:36.801Z,100172.25
2018-12-29T12:32:42.966Z,100159.02
2018-12-29T12:37:48.891Z,100159.10
2018-12-29T12:42:55.243Z,100145.65
2018-12-29T12:48:05.193Z,100135.86
2018-12-29T12:53:09.030Z,100135.86
2018-12-29T12:58:15.549Z,100145.37
2018-12-29T13:03:27.297Z,100146.69
2018-12-29T13:08:33.434Z,100146.69
2018-12-29T13:13:39.456Z,100133.41
2018-12-29T13:18:46.515Z,100124.80
2018-12-29T13:23:52.393Z,100124.80
2018-12-29T13:28:58.280Z,100121.52
2018-12-29T13:39:09.682Z,100106.27
2018-12-29T13:44:17.640Z,100093.30
2018-12-29T13:49:23.527Z,100093.30
2018-12-29T13:54:29.768Z,100109.09
2018-12-29T14:11:07.520Z,100114.66
2018-12-29T14:16:15.068Z,100095.27
2018-12-29T14:21:20.964Z,100112.23
2018-12-29T14:26:26.899Z,100109.40
2018-12-29T14:31:35.135Z,100096.75
2018-12-29T14:36:42.529Z,100106.19
2018-12-29T14:41:48.540Z,100101.31
2018-12-29T14:46:54.432Z,100112.41
2018-12-29T14:52:00.560Z,100130.50
2018-12-29T14:57:06.534Z,100135.84
2018-12-29T15:02:12.689Z,100135.91
2018-12-29T15:07:19.081Z,100125.37
2018-12-29T15:12:25.443Z,100129.77
2018-12-29T15:17:34.559Z,100121.53
2018-12-29T15:22:41.193Z,100124.37
2018-12-29T15:27:47.180Z,100119.80
2018-12-29T15:32:53.128Z,100122.30
2018-12-29T15:37:59.263Z,100114.20
2018-12-29T15:43:08.217Z,100098.34
2018-12-29T15:48:17.522Z,100088.41
2018-12-29T15:53:23.373Z,100087.80
2018-12-29T15:58:29.309Z,100074.04
2018-12-29T16:03:36.646Z,100074.50
2018-12-29T16:08:43.203Z,100071.59
2018-12-29T16:13:50.644Z,100059.36
2018-12-29T16:18:58.874Z,100044.14
2018-12-29T16:24:07.710Z,100035.06
2018-12-29T16:29:15.205Z,100020.22
2018-12-29T16:34:21.165Z,100029.27
2018-12-29T16:39:27.532Z,100005.06
2018-12-29T16:44:34.027Z,99989.63
2018-12-29T16:49:40.133Z,99978.61
2018-12-29T16:54:48.039Z,99978.61
2018-12-29T16:59:54.181Z,99983.73
2018-12-29T17:05:02.155Z,99976.42
2018-12-29T17:10:09.751Z,99970.48
2018-12-29T17:15:17.521Z,99980.07
2018-12-29T17:20:23.450Z,99960.28
2018-12-29T17:25:29.504Z,99960.28
2018-12-29T17:30:35.724Z,99943.45
2018-12-29T17:35:45.118Z,99934.98
2018-12-29T17:40:52.321Z,99949.35
2018-12-29T17:45:59.959Z,99937.97
2018-12-29T17:51:11.272Z,99931.69
2018-12-29T17:56:17.722Z,99930.18
2018-12-29T18:01:26.020Z,99924.81
2018-12-29T18:06:33.829Z,99922.81
2018-12-29T18:11:41.420Z,99912.15
2018-12-29T18:16:49.696Z,99920.02
2018-12-29T18:21:56.052Z,99921.95
2018-12-29T18:27:02.457Z,99930.60
2018-12-29T18:32:09.993Z,99961.53
2018-12-29T18:37:16.210Z,99961.95
2018-12-29T18:42:26.141Z,99962.48
2018-12-29T18:47:32.170Z,99958.83
2018-12-29T18:52:39.638Z,99956.20
2018-12-29T18:57:46.301Z,99961.22
2018-12-29T19:02:55.575Z,99943.94
2018-12-29T19:08:04.334Z,99943.94
2018-12-29T19:13:13.267Z,99938.73
2018-12-29T19:18:24.107Z,99914.95
2018-12-29T19:23:30.137Z,99875.05
2018-12-29T19:28:38.576Z,99846.59
2018-12-29T19:33:44.763Z,99812.09
2018-12-29T19:38:52.814Z,99793.45
2018-12-29T19:44:04.598Z,99777.63
2018-12-29T19:49:14.062Z,99768.37
2018-12-29T19:54:21.292Z,99759.42
2018-12-29T19:59:31.613Z,99743.11
2018-12-29T20:04:40.624Z,99726.03
2018-12-29T20:09:49.250Z,99678.80
2018-12-29T20:14:56.296Z,99655.98
2018-12-29T20:20:02.339Z,99621.59
2018-12-29T20:25:10.160Z,99621.77
2018-12-29T20:30:17.015Z,99647.83
2018-12-29T20:35:25.915Z,99653.91
2018-12-29T20:40:39.209Z,99646.94
2018-12-29T20:45:47.039Z,99618.41
2018-12-29T20:50:59.733Z,99607.48
2018-12-29T20:56:09.877Z,99601.89
2018-12-29T21:06:20.819Z,99585.95
2018-12-29T21:11:37.517Z,99590.47
2018-12-29T21:16:47.371Z,99576.83
2018-12-29T21:21:53.492Z,99543.47
2018-12-29T21:27:01.925Z,99549.19
2018-12-29T21:32:10.900Z,99538.78
2018-12-29T21:37:19.928Z,99545.95
2018-12-29T21:42:26.259Z,99531.43
2018-12-29T21:47:32.681Z,99529.82
2018-12-29T21:52:38.633Z,99525.73
2018-12-29T21:58:09.371Z,99513.14
2018-12-29T22:03:17.356Z,99488.22
2018-12-29T22:08:27.279Z,99488.22
2018-12-29T22:13:33.750Z,99503.17
2018-12-29T22:18:43.220Z,99481.12
2018-12-29T22:23:51.394Z,99481.00
2018-12-29T22:28:57.518Z,99467.53
2018-12-29T22:34:05.184Z,99463.89
2018-12-29T22:39:12.114Z,99453.13
2018-12-29T22:44:18.522Z,99420.33
2018-12-29T22:49:24.763Z,99435.64
2018-12-29T22:54:32.641Z,99429.10
2018-12-29T22:59:39.262Z,99427.34
2018-12-29T23:04:45.706Z,99409.70
2018-12-29T23:09:52.416Z,99412.84
2018-12-29T23:14:58.709Z,99394.53
2018-12-29T23:20:06.316Z,99403.97
2018-12-29T23:25:13.511Z,99394.43
2018-12-29T23:30:19.985Z,99400.83
2018-12-29T23:35:30.726Z,99383.08
2018-12-29T23:40:41.007Z,99379.62
2018-12-29T23:45:47.996Z,99365.27
